Airfield :
LOGIN :

Register | Disclaimer

   EN    FR    IT 

 










Legend :    VFR   Marginal VFR   IFR   Intensive IFR   Very Intensive IFR
Visi :
Ceiling :
>= 8 km
>= 3000ft
5 to 8 km
1000 to 3000 ft
1500m to 5 km
500 to 1000 ft
800 to 1500m
200 to 500 ft
< 800m
< 200 ft
Symbols :   Thunderstorms  Fog  Heavy snow  Heavy precipitations  Wind > 20 kt
SIGMETs :     Misc.  Thunderstorms  Icing  Turbulence  Mountain Waves  Volcanic Ashes






- Airport Elevation : 1000 ft
- IATA code : PEV


LHPP - Pécs Pogany

CURRENT METAR :
  • 230414Z AUTO VRB02KT 9999 -SHRA NSC 09/04 Q1023

EXPIRED METARs :
  • 230345Z AUTO VRB02KT 9999 -RA OVC049 09/03 Q1023
  • 230315Z AUTO 00000KT 9999 -RA OVC048 09/04 Q1023
  • 230245Z AUTO 04008KT 360V080 9999 -RA OVC045 09/04 Q1022
  • 230215Z AUTO 04007KT 9999 BKN046 BKN070 BKN083 09/03 Q1021
  • 230145Z AUTO 05008KT 010V080 CAVOK 09/03 Q1021

Expired Forecast.



MET'MAP, your aeronautical weather chart ! - Copyright ORBIFLY December 2007 - Disclaimer

ORBIFLY MET'MAP TEAM :

Programming & Development : Alexandra Zaïnal
Concept & original design : Baudouin d'Aumeries
Assistance for programming : Marc-Olivier Méhu
Technical & hardware support : Manuel Goepfert

Contact : metmap@orbifly.com




SOURCES & CREDITS :

   NOAA